Time;durP1;ratioP1;P1;durP2;ratioP2;P2;SDS_P1;SDS_P2;PMS_P1;PMS_P2;Temp;Humidity;BMP_temperature;BMP_pressure;BME280_temperature;BME280_humidity;BME280_pressure;Samples;Min_cycle;Max_cycle;Signal;HPM_P1;HPM_P2
2024/01/18 00:01:39;;;;;;;0.80;0.80;;;;;;;-2.12;100.00;96770.66;5022219;28;20045;-60
2024/01/18 00:04:06;;;;;;;0.80;0.80;;;;;;;-2.10;100.00;96776.47;5023715;28;20071;-60
2024/01/18 00:06:34;;;;;;;0.80;0.80;;;;;;;-2.14;100.00;96783.22;5020331;28;20061;-60
2024/01/18 00:09:01;;;;;;;0.80;0.80;;;;;;;-2.14;100.00;96788.47;5041064;28;20049;-60
2024/01/18 00:11:30;;;;;;;0.85;0.85;;;;;;;-2.16;100.00;96783.44;5039403;28;20065;-59
2024/01/18 00:13:57;;;;;;;0.90;0.90;;;;;;;-2.12;100.00;96779.34;5025448;28;20519;-60
2024/01/18 00:16:24;;;;;;;0.90;0.90;;;;;;;-2.12;100.00;96787.22;5042189;28;20045;-60
2024/01/18 00:18:51;;;;;;;0.80;0.80;;;;;;;-2.16;100.00;96793.91;5040246;28;20545;-60
2024/01/18 00:21:18;;;;;;;0.75;0.75;;;;;;;-2.09;100.00;96789.41;5026485;28;20132;-60
2024/01/18 00:23:45;;;;;;;0.90;0.90;;;;;;;-1.93;100.00;96789.81;5043448;28;20787;-60
2024/01/18 00:26:12;;;;;;;0.70;0.70;;;;;;;-1.94;100.00;96782.97;5038192;28;20064;-60
2024/01/18 00:28:40;;;;;;;1.00;1.00;;;;;;;-2.10;100.00;96784.34;5044368;28;20557;-60
2024/01/18 00:31:07;;;;;;;0.80;0.80;;;;;;;-2.10;100.00;96805.34;5043813;28;20045;-59
2024/01/18 00:33:34;;;;;;;0.90;0.90;;;;;;;-2.05;100.00;96814.16;5042305;28;20052;-59
2024/01/18 00:36:01;;;;;;;0.90;0.90;;;;;;;-2.14;100.00;96818.13;5044016;28;20049;-59
2024/01/18 00:38:30;;;;;;;0.70;0.70;;;;;;;-2.20;100.00;96819.00;5043657;28;20055;-59
2024/01/18 00:40:57;;;;;;;1.00;1.00;;;;;;;-2.21;100.00;96817.41;5039039;28;20041;-60
2024/01/18 00:43:24;;;;;;;0.80;0.80;;;;;;;-2.14;100.00;96822.59;5039460;28;20053;-59
2024/01/18 00:45:52;;;;;;;0.95;0.95;;;;;;;-2.08;100.00;96826.94;5041447;28;20037;-60
2024/01/18 00:48:19;;;;;;;0.80;0.80;;;;;;;-2.20;100.00;96837.38;5043381;28;20076;-60
2024/01/18 00:50:46;;;;;;;0.80;0.80;;;;;;;-2.10;100.00;96845.53;5044467;28;20049;-59
2024/01/18 00:53:13;;;;;;;0.80;0.80;;;;;;;-2.20;100.00;96850.47;5043223;28;20495;-59
2024/01/18 00:55:41;;;;;;;1.00;1.00;;;;;;;-2.18;100.00;96853.69;5042640;28;20071;-59
2024/01/18 00:58:08;;;;;;;0.80;0.80;;;;;;;-2.31;100.00;96853.84;5043784;28;20561;-59
2024/01/18 01:00:35;;;;;;;0.90;0.90;;;;;;;-2.40;100.00;96851.53;5040321;28;20041;-59
2024/01/18 01:03:03;;;;;;;0.85;0.85;;;;;;;-2.41;100.00;96851.72;5021916;28;20057;-59
2024/01/18 01:05:31;;;;;;;0.80;0.80;;;;;;;-2.41;100.00;96867.47;5042034;28;20346;-59
2024/01/18 01:07:58;;;;;;;0.90;0.90;;;;;;;-2.44;100.00;96881.81;5023882;28;20040;-60
2024/01/18 01:10:25;;;;;;;0.90;0.90;;;;;;;-2.47;100.00;96889.31;5038330;28;20061;-59
2024/01/18 01:12:52;;;;;;;0.90;0.90;;;;;;;-2.55;100.00;96881.72;5043239;28;20079;-60
2024/01/18 01:15:19;;;;;;;1.00;1.00;;;;;;;-2.45;100.00;96885.44;5043063;28;20061;-59
2024/01/18 01:17:46;;;;;;;0.90;0.90;;;;;;;-2.42;100.00;96885.03;5042357;28;20041;-59
2024/01/18 01:20:15;;;;;;;0.98;0.98;;;;;;;-2.53;100.00;96880.50;5042508;28;20049;-59
2024/01/18 01:22:42;;;;;;;0.90;0.90;;;;;;;-2.63;100.00;96891.47;5017810;28;20099;-60
2024/01/18 01:25:10;;;;;;;0.90;0.90;;;;;;;-2.49;100.00;96899.25;5023210;28;20057;-59
2024/01/18 01:27:38;;;;;;;0.95;0.95;;;;;;;-2.46;100.00;96907.47;5037350;28;20053;-59
2024/01/18 01:30:06;;;;;;;0.90;0.90;;;;;;;-2.64;100.00;96907.44;5040053;28;20396;-59
2024/01/18 01:32:33;;;;;;;0.90;0.90;;;;;;;-2.62;100.00;96905.41;5036608;28;20037;-59
2024/01/18 01:35:01;;;;;;;1.00;1.00;;;;;;;-2.55;100.00;96900.88;5042447;28;20049;-59
2024/01/18 01:37:29;;;;;;;0.80;0.80;;;;;;;-2.65;100.00;96921.53;5038396;28;20040;-59
2024/01/18 01:39:56;;;;;;;1.00;1.00;;;;;;;-2.64;100.00;96928.41;5042522;28;20041;-59
2024/01/18 01:42:24;;;;;;;0.90;0.90;;;;;;;-2.54;100.00;96920.88;5038449;28;20720;-59
2024/01/18 01:44:53;;;;;;;0.90;0.90;;;;;;;-2.23;100.00;96913.91;5041439;28;20061;-59
2024/01/18 01:47:20;;;;;;;0.90;0.90;;;;;;;-2.51;100.00;96920.44;5040049;28;20095;-59
2024/01/18 01:49:48;;;;;;;0.85;0.85;;;;;;;-2.56;100.00;96925.50;5034123;28;20041;-60
2024/01/18 01:52:15;;;;;;;0.73;0.73;;;;;;;-2.55;100.00;96919.25;5041603;28;20064;-59
2024/01/18 01:54:44;;;;;;;0.90;0.90;;;;;;;-2.48;100.00;96913.94;5047872;28;20452;-58
2024/01/18 01:57:11;;;;;;;0.90;0.90;;;;;;;-2.57;100.00;96921.28;5037869;28;20058;-59
2024/01/18 01:59:41;;;;;;;0.73;0.73;;;;;;;-2.55;100.00;96921.88;5024676;28;20041;-59
2024/01/18 02:02:08;;;;;;;0.90;0.90;;;;;;;-2.40;100.00;96917.09;5032625;28;20125;-59
2024/01/18 02:04:36;;;;;;;1.00;1.00;;;;;;;-2.58;100.00;96911.00;5039397;28;20088;-59
2024/01/18 02:07:04;;;;;;;0.80;0.80;;;;;;;-2.50;100.00;96918.59;5041371;28;20780;-60
2024/01/18 02:09:31;;;;;;;0.90;0.90;;;;;;;-2.64;100.00;96904.81;5042000;28;20115;-59
2024/01/18 02:12:01;;;;;;;0.80;0.80;;;;;;;-2.63;100.00;96903.78;5040996;28;20041;-59
2024/01/18 02:14:28;;;;;;;0.90;0.90;;;;;;;-2.65;100.00;96911.06;5037295;28;20057;-59
2024/01/18 02:16:56;;;;;;;0.90;0.90;;;;;;;-2.59;100.00;96925.94;5037016;28;20049;-59
2024/01/18 02:19:23;;;;;;;0.90;0.90;;;;;;;-2.64;100.00;96923.16;5040552;28;20041;-59
2024/01/18 02:21:50;;;;;;;0.85;0.85;;;;;;;-2.75;100.00;96910.75;5036005;28;20057;-59
2024/01/18 02:24:18;;;;;;;1.10;1.10;;;;;;;-2.65;100.00;96905.81;5038478;28;20480;-59
2024/01/18 02:26:47;;;;;;;0.98;0.98;;;;;;;-2.74;100.00;96923.66;5037987;28;20068;-59
2024/01/18 02:29:14;;;;;;;0.98;0.98;;;;;;;-2.70;100.00;96924.00;5039946;28;20087;-59
2024/01/18 02:31:41;;;;;;;0.80;0.80;;;;;;;-2.76;100.00;96901.28;5041177;28;20090;-59
2024/01/18 02:34:10;;;;;;;0.90;0.90;;;;;;;-2.73;100.00;96908.72;5036512;28;20409;-59
2024/01/18 02:36:37;;;;;;;0.85;0.85;;;;;;;-2.77;100.00;96918.84;5036411;28;20187;-59
2024/01/18 02:39:04;;;;;;;1.00;1.00;;;;;;;-2.83;100.00;96924.91;5042129;28;20045;-59
2024/01/18 02:41:31;;;;;;;0.93;0.93;;;;;;;-2.56;100.00;96925.50;5041865;28;20136;-59
2024/01/18 02:44:00;;;;;;;0.90;0.90;;;;;;;-2.59;100.00;96930.41;5040850;28;20048;-59
2024/01/18 02:46:28;;;;;;;0.80;0.80;;;;;;;-2.75;100.00;96939.59;5038498;28;20446;-59
2024/01/18 02:48:55;;;;;;;0.88;0.88;;;;;;;-2.78;100.00;96937.41;5040171;28;20513;-59
2024/01/18 02:51:22;;;;;;;0.90;0.90;;;;;;;-2.68;100.00;96932.47;5019393;28;20052;-59
2024/01/18 02:53:49;;;;;;;1.00;1.00;;;;;;;-2.66;100.00;96925.19;5033808;28;20072;-59
2024/01/18 02:56:16;;;;;;;0.80;0.80;;;;;;;-2.70;100.00;96935.28;5020332;28;20044;-59
2024/01/18 02:58:43;;;;;;;0.95;0.95;;;;;;;-2.77;100.00;96926.72;5040786;28;20048;-58
2024/01/18 03:01:11;;;;;;;0.98;0.98;;;;;;;-2.81;100.00;96920.28;5041513;28;20469;-59
2024/01/18 03:03:38;;;;;;;1.00;1.00;;;;;;;-2.77;100.00;96900.50;5040968;28;20069;-59
2024/01/18 03:06:06;;;;;;;0.90;0.90;;;;;;;-2.79;100.00;96915.63;5039667;28;20144;-59
2024/01/18 03:08:34;;;;;;;0.85;0.85;;;;;;;-2.90;100.00;96913.69;5035337;28;20042;-59
2024/01/18 03:11:01;;;;;;;1.00;1.00;;;;;;;-2.84;100.00;96918.09;5039367;28;20103;-59
2024/01/18 03:13:28;;;;;;;0.90;0.90;;;;;;;-2.83;100.00;96917.84;5036979;28;20720;-59
2024/01/18 03:15:55;;;;;;;0.80;0.80;;;;;;;-2.84;100.00;96934.59;5037275;28;20057;-59
2024/01/18 03:18:23;;;;;;;0.85;0.85;;;;;;;-2.76;100.00;96925.69;5037621;28;20049;-59
2024/01/18 03:20:50;;;;;;;0.90;0.90;;;;;;;-2.75;100.00;96931.72;5041268;28;20132;-60
2024/01/18 03:23:17;;;;;;;1.00;1.00;;;;;;;-2.85;100.00;96916.47;5041335;28;20098;-59
2024/01/18 03:25:45;;;;;;;1.05;1.05;;;;;;;-2.87;100.00;96928.97;5039993;28;20072;-59
2024/01/18 03:28:12;;;;;;;1.00;1.00;;;;;;;-2.86;100.00;96913.03;5035490;28;20045;-59
2024/01/18 03:30:40;;;;;;;0.70;0.70;;;;;;;-2.86;100.00;96926.16;5034920;28;20061;-59
2024/01/18 03:33:07;;;;;;;0.93;0.93;;;;;;;-2.90;100.00;96918.91;5038468;28;20061;-59
2024/01/18 03:35:35;;;;;;;0.90;0.90;;;;;;;-2.93;100.00;96914.09;5038178;28;20402;-59
2024/01/18 03:38:03;;;;;;;0.70;0.70;;;;;;;-2.95;100.00;96914.31;5041552;28;20049;-59
2024/01/18 03:40:31;;;;;;;0.90;0.90;;;;;;;-2.94;100.00;96923.78;5036984;28;20390;-59
2024/01/18 03:42:58;;;;;;;1.00;1.00;;;;;;;-2.87;100.00;96916.69;5019480;28;20051;-59
2024/01/18 03:45:33;;;;;;;1.00;1.00;;;;;;;-2.82;100.00;96921.31;5037670;28;20443;-59
2024/01/18 03:48:00;;;;;;;0.80;0.80;;;;;;;-2.90;100.00;96930.19;5036076;28;20078;-59
2024/01/18 03:50:27;;;;;;;0.88;0.88;;;;;;;-2.96;100.00;96931.06;5037339;28;20551;-59
2024/01/18 03:52:55;;;;;;;0.90;0.90;;;;;;;-2.82;100.00;96937.03;5038848;28;20299;-59
2024/01/18 03:55:22;;;;;;;0.85;0.85;;;;;;;-2.87;100.00;96940.28;5037268;28;20750;-59
2024/01/18 03:57:49;;;;;;;0.90;0.90;;;;;;;-2.89;100.00;96947.56;5031152;28;20627;-59
2024/01/18 04:00:17;;;;;;;0.90;0.90;;;;;;;-2.96;100.00;96954.66;5038795;28;20037;-60
2024/01/18 04:02:44;;;;;;;1.00;1.00;;;;;;;-2.93;100.00;96956.84;5033333;28;20044;-60
2024/01/18 04:05:11;;;;;;;0.90;0.90;;;;;;;-2.95;100.00;96963.31;5040763;28;20123;-59
2024/01/18 04:07:38;;;;;;;0.88;0.88;;;;;;;-2.91;100.00;96965.31;5040334;28;20798;-60
2024/01/18 04:10:09;;;;;;;1.00;1.00;;;;;;;-2.79;100.00;96962.03;5039337;28;20041;-60
2024/01/18 04:12:36;;;;;;;1.00;1.00;;;;;;;-2.68;100.00;96963.94;5036003;28;20049;-60
2024/01/18 04:15:03;;;;;;;0.90;0.90;;;;;;;-2.64;100.00;96973.00;5036130;28;20141;-60
2024/01/18 04:17:30;;;;;;;0.90;0.90;;;;;;;-2.67;100.00;96970.78;5034338;28;20048;-60
2024/01/18 04:19:57;;;;;;;0.98;0.98;;;;;;;-2.64;100.00;96970.38;5023076;28;20048;-60
2024/01/18 04:22:24;;;;;;;1.00;1.00;;;;;;;-2.76;100.00;96972.88;5031331;28;20049;-59
2024/01/18 04:24:52;;;;;;;1.08;1.08;;;;;;;-2.74;100.00;96975.28;5032721;28;20041;-61
2024/01/18 04:27:21;;;;;;;1.00;1.00;;;;;;;-2.73;100.00;96982.13;5040186;28;20041;-60
2024/01/18 04:29:48;;;;;;;0.90;0.90;;;;;;;-2.71;100.00;96983.53;5035452;28;20036;-60
2024/01/18 04:32:15;;;;;;;1.00;1.00;;;;;;;-2.71;100.00;96980.09;5036871;28;20049;-60
2024/01/18 04:34:42;;;;;;;0.82;0.82;;;;;;;-2.78;100.00;96984.59;5033582;28;20045;-60
2024/01/18 04:37:11;;;;;;;1.00;1.00;;;;;;;-2.87;100.00;96982.22;5038595;28;20111;-60
2024/01/18 04:39:38;;;;;;;0.80;0.80;;;;;;;-2.75;100.00;96992.03;5020624;28;20864;-60
2024/01/18 04:42:06;;;;;;;1.00;1.00;;;;;;;-2.93;100.00;96992.75;5034864;28;20065;-60
2024/01/18 04:44:34;;;;;;;0.95;0.95;;;;;;;-2.96;100.00;96988.72;5016849;28;20507;-60
2024/01/18 04:47:01;;;;;;;0.93;0.93;;;;;;;-2.98;100.00;96996.00;5018662;28;20506;-60
2024/01/18 04:49:28;;;;;;;0.90;0.90;;;;;;;-3.03;100.00;96995.81;5017305;28;20073;-59
2024/01/18 04:51:56;;;;;;;0.93;0.93;;;;;;;-2.99;100.00;96999.66;5017185;28;20049;-60
2024/01/18 04:54:23;;;;;;;0.95;0.95;;;;;;;-3.03;100.00;97001.88;5009163;28;20192;-59
2024/01/18 04:56:51;;;;;;;0.98;0.98;;;;;;;-2.99;100.00;97004.88;5016354;28;20073;-59
2024/01/18 04:59:18;;;;;;;0.90;0.90;;;;;;;-3.07;100.00;97012.97;5018443;28;20041;-59
2024/01/18 05:01:47;;;;;;;0.90;0.90;;;;;;;-3.03;100.00;97016.78;5020398;28;20046;-60
2024/01/18 05:04:14;;;;;;;0.95;0.95;;;;;;;-2.92;100.00;97021.38;5022078;28;20045;-60
2024/01/18 05:06:41;;;;;;;0.88;0.88;;;;;;;-3.12;100.00;97024.09;5022203;28;20053;-60
2024/01/18 05:09:11;;;;;;;0.90;0.90;;;;;;;-3.08;100.00;97033.13;5022891;28;20431;-59
2024/01/18 05:11:38;;;;;;;1.05;1.05;;;;;;;-3.13;100.00;97025.09;5021077;28;20152;-59
2024/01/18 05:14:05;;;;;;;1.10;1.10;;;;;;;-3.08;100.00;97027.91;5017624;28;20179;-59
2024/01/18 05:16:38;;;;;;;1.00;1.00;;;;;;;-3.10;100.00;97037.78;5017943;28;20046;-59
2024/01/18 05:19:07;;;;;;;1.00;1.00;;;;;;;-3.13;100.00;97034.78;5015646;28;20675;-60
2024/01/18 05:21:34;;;;;;;0.95;0.95;;;;;;;-3.15;100.00;97037.59;5021893;28;20042;-59
2024/01/18 05:24:01;;;;;;;0.90;0.90;;;;;;;-3.15;100.00;97036.81;5024335;28;20072;-59
2024/01/18 05:26:28;;;;;;;0.90;0.90;;;;;;;-3.09;100.00;97042.03;5018905;28;20052;-59
2024/01/18 05:28:56;;;;;;;1.00;1.00;;;;;;;-3.17;100.00;97044.06;5021007;28;20052;-58
2024/01/18 05:31:23;;;;;;;0.85;0.85;;;;;;;-3.10;100.00;97044.84;5019754;28;20491;-59
2024/01/18 05:33:50;;;;;;;0.80;0.80;;;;;;;-3.10;100.00;97050.09;5033464;28;20140;-59
2024/01/18 05:36:18;;;;;;;0.90;0.90;;;;;;;-3.16;100.00;97045.69;5019283;28;20274;-59
2024/01/18 05:38:46;;;;;;;0.90;0.90;;;;;;;-3.08;100.00;97059.34;5010044;28;20037;-59
2024/01/18 05:41:13;;;;;;;0.90;0.90;;;;;;;-3.14;100.00;97054.16;5021554;28;20131;-59
2024/01/18 05:43:40;;;;;;;1.00;1.00;;;;;;;-3.02;100.00;97057.72;5026628;28;20045;-59
2024/01/18 05:46:08;;;;;;;1.10;1.10;;;;;;;-3.11;100.00;97058.97;5040400;28;20057;-59
2024/01/18 05:48:35;;;;;;;1.10;1.10;;;;;;;-3.08;100.00;97061.16;5037076;28;20053;-59
2024/01/18 05:51:02;;;;;;;1.10;1.10;;;;;;;-3.17;100.00;97065.84;5037229;28;20083;-59
2024/01/18 05:53:30;;;;;;;0.98;0.98;;;;;;;-3.21;100.00;97069.09;5041985;28;20060;-59
2024/01/18 05:55:59;;;;;;;0.90;0.90;;;;;;;-3.06;100.00;97072.25;5040494;28;20045;-59
2024/01/18 05:58:26;;;;;;;0.90;0.90;;;;;;;-3.12;100.00;97083.56;5038149;28;20146;-59
2024/01/18 06:00:53;;;;;;;1.08;1.08;;;;;;;-3.12;100.00;97078.31;5035591;28;20036;-59
2024/01/18 06:03:20;;;;;;;1.02;1.02;;;;;;;-3.13;100.00;97087.19;5021649;28;20076;-58
2024/01/18 06:05:47;;;;;;;1.10;1.10;;;;;;;-3.17;100.00;97086.00;5023823;28;20033;-58
2024/01/18 06:08:15;;;;;;;1.00;1.00;;;;;;;-3.05;100.00;97097.44;5042625;28;20056;-58
2024/01/18 06:10:44;;;;;;;1.00;1.00;;;;;;;-3.25;100.00;97100.94;5039989;28;20434;-58
2024/01/18 06:13:11;;;;;;;1.00;1.00;;;;;;;-3.27;100.00;97105.59;5040539;28;20459;-58
2024/01/18 06:15:39;;;;;;;1.00;1.00;;;;;;;-3.22;100.00;97104.16;5040470;28;20048;-58
2024/01/18 06:18:06;;;;;;;0.90;0.90;;;;;;;-3.28;100.00;97101.34;5036409;28;20499;-58
2024/01/18 06:20:33;;;;;;;1.00;1.00;;;;;;;-3.31;100.00;97114.88;5037504;28;20037;-58
2024/01/18 06:23:01;;;;;;;1.00;1.00;;;;;;;-3.20;100.00;97117.84;5022341;28;20067;-58
2024/01/18 06:25:28;;;;;;;0.93;0.93;;;;;;;-3.17;100.00;97128.75;5035983;28;20045;-59
2024/01/18 06:27:57;;;;;;;0.93;0.93;;;;;;;-3.13;100.00;97134.38;5041216;28;20052;-58
2024/01/18 06:30:24;;;;;;;1.00;1.00;;;;;;;-3.26;100.00;97138.63;5035689;28;20148;-59
2024/01/18 06:32:51;;;;;;;1.00;1.00;;;;;;;-3.15;100.00;97134.56;5032535;28;20049;-59
2024/01/18 06:35:18;;;;;;;1.00;1.00;;;;;;;-3.14;100.00;97127.53;5035403;28;20049;-58
2024/01/18 06:37:45;;;;;;;0.90;0.90;;;;;;;-3.16;100.00;97129.53;5034836;28;20072;-59
2024/01/18 06:40:14;;;;;;;1.00;1.00;;;;;;;-3.18;100.00;97131.56;5038712;28;20067;-58
2024/01/18 06:42:41;;;;;;;1.02;1.02;;;;;;;-3.26;100.00;97141.25;5011227;28;20539;-59
2024/01/18 06:45:11;;;;;;;0.80;0.80;;;;;;;-3.23;100.00;97139.22;5034230;28;20123;-59
2024/01/18 06:47:38;;;;;;;1.10;1.10;;;;;;;-3.17;100.00;97135.78;5018120;28;20091;-59
2024/01/18 06:50:05;;;;;;;1.00;1.00;;;;;;;-3.22;100.00;97140.84;5036857;28;20068;-59
2024/01/18 06:52:33;;;;;;;0.90;0.90;;;;;;;-3.23;100.00;97149.72;5039754;28;20064;-58
2024/01/18 06:55:00;;;;;;;0.95;0.95;;;;;;;-3.27;100.00;97150.13;5034249;28;20816;-59
2024/01/18 06:57:28;;;;;;;0.90;0.90;;;;;;;-3.24;100.00;97154.16;5032498;28;20038;-59
2024/01/18 06:59:56;;;;;;;1.02;1.02;;;;;;;-3.17;100.00;97159.38;5003222;28;20613;-60
2024/01/18 07:02:24;;;;;;;0.90;0.90;;;;;;;-3.21;100.00;97155.56;5036818;28;20041;-59
2024/01/18 07:04:52;;;;;;;0.98;0.98;;;;;;;-3.11;100.00;97163.78;5032412;28;20136;-60
2024/01/18 07:07:20;;;;;;;0.90;0.90;;;;;;;-3.26;100.00;97161.41;5017076;28;20544;-61
2024/01/18 07:09:47;;;;;;;0.98;0.98;;;;;;;-3.27;100.00;97165.84;5038196;28;20048;-61
2024/01/18 07:12:14;;;;;;;1.00;1.00;;;;;;;-3.32;100.00;97172.69;5035761;28;20044;-61
2024/01/18 07:14:42;;;;;;;0.93;0.93;;;;;;;-3.22;100.00;97175.72;5014301;28;20042;-61
2024/01/18 07:17:10;;;;;;;0.90;0.90;;;;;;;-3.25;100.00;97174.28;5036701;28;20055;-61
2024/01/18 07:19:39;;;;;;;1.10;1.10;;;;;;;-3.28;100.00;97171.28;5039738;28;20183;-60
2024/01/18 07:22:06;;;;;;;1.00;1.00;;;;;;;-3.21;100.00;97174.69;5036097;28;20055;-60
2024/01/18 07:24:34;;;;;;;1.00;1.00;;;;;;;-3.33;100.00;97177.13;5037398;28;20107;-60
2024/01/18 07:27:01;;;;;;;1.00;1.00;;;;;;;-3.29;100.00;97183.59;5034195;28;20117;-60
2024/01/18 07:29:28;;;;;;;0.90;0.90;;;;;;;-3.34;100.00;97180.78;5033481;28;20068;-59
2024/01/18 07:31:55;;;;;;;0.85;0.85;;;;;;;-3.42;100.00;97186.22;5036412;28;20159;-60
2024/01/18 07:34:22;;;;;;;0.85;0.85;;;;;;;-3.31;100.00;97180.34;5037125;28;20518;-60
2024/01/18 07:36:51;;;;;;;0.90;0.90;;;;;;;-3.39;100.00;97185.81;5019267;28;20052;-60
2024/01/18 07:39:18;;;;;;;0.90;0.90;;;;;;;-3.38;100.00;97184.00;5034043;28;20338;-60
2024/01/18 07:41:46;;;;;;;0.82;0.82;;;;;;;-3.31;100.00;97196.06;5035890;28;20481;-59
2024/01/18 07:44:13;;;;;;;0.82;0.82;;;;;;;-3.27;100.00;97193.84;5004616;28;20053;-60
2024/01/18 07:46:40;;;;;;;1.00;1.00;;;;;;;-3.37;100.00;97190.84;4996908;28;20046;-60
2024/01/18 07:49:07;;;;;;;0.98;0.98;;;;;;;-3.30;100.00;97196.88;4996874;28;20033;-60
2024/01/18 07:51:37;;;;;;;1.02;1.02;;;;;;;-3.27;100.00;97194.66;4998260;28;20623;-59
2024/01/18 07:54:06;;;;;;;1.00;1.00;;;;;;;-3.32;100.00;97199.72;4995355;28;20046;-59
2024/01/18 07:56:35;;;;;;;0.93;0.93;;;;;;;-3.37;100.00;97211.78;4996493;28;20046;-59
2024/01/18 07:59:02;;;;;;;0.90;0.90;;;;;;;-3.31;100.00;97209.19;4998008;28;20050;-59
2024/01/18 08:01:29;;;;;;;0.90;0.90;;;;;;;-3.20;100.00;97214.81;4992153;28;20120;-60
2024/01/18 08:03:56;;;;;;;1.00;1.00;;;;;;;-3.25;100.00;97215.41;5001920;28;20852;-61
2024/01/18 08:06:23;;;;;;;1.00;1.00;;;;;;;-3.28;100.00;97224.47;4998156;28;20534;-60
2024/01/18 08:08:52;;;;;;;0.90;0.90;;;;;;;-3.27;100.00;97223.50;4992919;28;20700;-60
2024/01/18 08:11:20;;;;;;;0.80;0.80;;;;;;;-3.34;100.00;97220.06;4999773;28;20041;-61
2024/01/18 08:13:48;;;;;;;0.90;0.90;;;;;;;-3.27;100.00;97222.66;4994818;28;20046;-60
2024/01/18 08:16:15;;;;;;;1.05;1.05;;;;;;;-3.37;100.00;97223.09;4995784;28;20171;-61
2024/01/18 08:18:44;;;;;;;0.93;0.93;;;;;;;-3.26;100.00;97235.56;5001046;28;20459;-59
2024/01/18 08:21:11;;;;;;;1.10;1.10;;;;;;;-3.17;100.00;97237.97;5001374;28;20045;-59
2024/01/18 08:23:38;;;;;;;1.08;1.08;;;;;;;-3.08;100.00;97244.63;5000547;28;20419;-61
2024/01/18 08:26:06;;;;;;;1.10;1.10;;;;;;;-3.15;100.00;97235.97;4999032;28;20046;-60
2024/01/18 08:28:35;;;;;;;1.00;1.00;;;;;;;-3.05;100.00;97246.84;5000558;28;20038;-60
2024/01/18 08:31:02;;;;;;;1.00;1.00;;;;;;;-2.97;100.00;97254.50;4999369;28;20508;-60
2024/01/18 08:33:29;;;;;;;1.00;1.00;;;;;;;-3.04;100.00;97253.69;4996952;28;20074;-60
2024/01/18 08:35:56;;;;;;;1.10;1.10;;;;;;;-3.01;100.00;97252.50;5001870;28;20056;-60
2024/01/18 08:38:24;;;;;;;1.00;1.00;;;;;;;-3.06;100.00;97245.22;5005109;28;20424;-60
2024/01/18 08:40:51;;;;;;;0.90;0.90;;;;;;;-2.89;100.00;97262.16;5004379;28;20038;-60
2024/01/18 08:43:22;;;;;;;0.90;0.90;;;;;;;-2.92;100.00;97267.81;5005475;28;20045;-59
2024/01/18 08:45:52;;;;;;;1.00;1.00;;;;;;;-2.85;100.00;97267.78;5037664;28;20056;-60
2024/01/18 08:48:19;;;;;;;0.98;0.98;;;;;;;-2.87;100.00;97265.38;5039679;28;20165;-61
2024/01/18 08:50:47;;;;;;;1.00;1.00;;;;;;;-2.66;100.00;97276.63;5038169;28;20119;-59
2024/01/18 08:53:14;;;;;;;0.98;0.98;;;;;;;-2.54;100.00;97277.59;5018159;28;20080;-60
2024/01/18 08:55:41;;;;;;;1.00;1.00;;;;;;;-2.47;100.00;97275.75;5041887;28;20491;-60
2024/01/18 08:58:08;;;;;;;1.05;1.05;;;;;;;-2.67;100.00;97286.31;5043997;28;20044;-60
2024/01/18 09:00:35;;;;;;;1.02;1.02;;;;;;;-2.41;100.00;97305.59;5038572;28;20123;-61
2024/01/18 09:03:04;;;;;;;1.00;1.00;;;;;;;-2.41;100.00;97314.28;5043243;28;20123;-61
2024/01/18 09:05:32;;;;;;;1.00;1.00;;;;;;;-2.46;100.00;97316.72;5026323;28;20075;-60
2024/01/18 09:08:00;;;;;;;1.00;1.00;;;;;;;-2.58;100.00;97314.94;5043763;28;20060;-60
2024/01/18 09:10:28;;;;;;;0.90;0.90;;;;;;;-2.60;100.00;97320.38;5039612;28;20524;-60
2024/01/18 09:12:55;;;;;;;1.10;1.10;;;;;;;-2.26;100.00;97327.16;5021833;28;20514;-60
2024/01/18 09:15:24;;;;;;;1.00;1.00;;;;;;;-2.43;100.00;97334.66;5041477;28;20492;-59
2024/01/18 09:17:52;;;;;;;1.00;1.00;;;;;;;-2.38;100.00;97341.91;5043864;28;20060;-61
2024/01/18 09:20:22;;;;;;;0.90;0.90;;;;;;;-2.35;100.00;97346.75;5039608;28;20049;-60
2024/01/18 09:22:49;;;;;;;1.00;1.00;;;;;;;-2.35;100.00;97357.25;5041303;28;20756;-61
2024/01/18 09:25:16;;;;;;;0.98;0.98;;;;;;;-2.26;100.00;97370.97;5038527;28;20049;-61
2024/01/18 09:27:44;;;;;;;0.90;0.90;;;;;;;-2.30;100.00;97360.06;5042129;28;20041;-59
2024/01/18 09:30:12;;;;;;;0.82;0.82;;;;;;;-2.11;100.00;97362.84;5042733;28;20045;-59
2024/01/18 09:32:42;;;;;;;1.02;1.02;;;;;;;-2.16;100.00;97373.97;5040203;28;20072;-61
2024/01/18 09:35:09;;;;;;;1.00;1.00;;;;;;;-1.97;100.00;97365.22;5038860;28;20496;-60
2024/01/18 09:37:38;;;;;;;0.90;0.90;;;;;;;-2.10;100.00;97370.50;5006755;28;20523;-60
2024/01/18 09:40:11;;;;;;;0.80;0.80;;;;;;;-2.06;100.00;97386.66;5038878;28;20055;-60
2024/01/18 09:42:44;;;;;;;0.90;0.90;;;;;;;-2.07;100.00;97396.38;5024002;28;20044;-61
2024/01/18 09:45:11;;;;;;;1.10;1.10;;;;;;;-2.09;100.00;97402.84;5025165;28;20052;-60
2024/01/18 09:47:41;;;;;;;0.90;0.90;;;;;;;-1.59;100.00;97400.44;5037654;28;20065;-60
2024/01/18 09:50:08;;;;;;;0.90;0.90;;;;;;;-1.79;100.00;97400.50;5041057;28;20045;-60
2024/01/18 09:52:35;;;;;;;1.00;1.00;;;;;;;-1.86;100.00;97408.41;5027332;28;20045;-60
2024/01/18 09:55:08;;;;;;;1.00;1.00;;;;;;;-1.71;100.00;97410.78;5039325;28;20060;-59
2024/01/18 09:57:35;;;;;;;0.95;0.95;;;;;;;-1.74;100.00;97422.50;5039297;28;20048;-60
2024/01/18 10:00:03;;;;;;;0.90;0.90;;;;;;;-1.60;100.00;97432.94;5041891;28;20380;-60
2024/01/18 10:02:38;;;;;;;1.00;1.00;;;;;;;-1.76;100.00;97429.78;5037860;28;20046;-61
2024/01/18 10:05:05;;;;;;;0.90;0.90;;;;;;;-1.89;100.00;97440.34;5036597;28;20053;-61
2024/01/18 10:07:33;;;;;;;1.00;1.00;;;;;;;-1.86;100.00;97444.38;5019337;28;20049;-60
2024/01/18 10:10:00;;;;;;;0.90;0.90;;;;;;;-1.78;100.00;97452.00;5037353;28;20051;-60
2024/01/18 10:12:31;;;;;;;1.00;1.00;;;;;;;-2.01;100.00;97470.88;5031910;28;20050;-60
2024/01/18 10:14:58;;;;;;;1.00;1.00;;;;;;;-1.92;100.00;97477.53;5019294;28;20052;-61
2024/01/18 10:17:27;;;;;;;1.08;1.08;;;;;;;-1.92;100.00;97482.78;5022074;28;20082;-60
2024/01/18 10:19:56;;;;;;;1.00;1.00;;;;;;;-2.13;100.00;97477.75;5042904;28;20045;-60
2024/01/18 10:22:23;;;;;;;0.80;0.80;;;;;;;-2.05;100.00;97488.81;5040475;28;20144;-60
2024/01/18 10:24:49;;;;;;;0.85;0.85;;;;;;;-2.00;100.00;97488.22;5036787;28;20076;-60
2024/01/18 10:27:18;;;;;;;1.00;1.00;;;;;;;-1.97;100.00;97496.50;5037784;28;20125;-60
2024/01/18 10:29:48;;;;;;;0.80;0.80;;;;;;;-2.15;100.00;97498.13;5039459;28;20049;-60
2024/01/18 10:32:16;;;;;;;1.00;1.00;;;;;;;-2.23;100.00;97507.03;5038823;28;20044;-61
2024/01/18 10:34:45;;;;;;;1.00;1.00;;;;;;;-2.17;100.00;97511.47;5040252;28;20422;-60
2024/01/18 10:37:15;;;;;;;0.90;0.90;;;;;;;-1.94;100.00;97507.63;5038355;28;20126;-60
2024/01/18 10:39:43;;;;;;;1.00;1.00;;;;;;;-1.75;100.00;97517.25;5020142;28;20080;-61
2024/01/18 10:42:10;;;;;;;1.00;1.00;;;;;;;-1.64;100.00;97511.38;5031982;28;20045;-60
2024/01/18 10:44:41;;;;;;;1.00;1.00;;;;;;;-1.65;100.00;97503.69;5036357;28;20060;-61
2024/01/18 10:47:11;;;;;;;1.05;1.05;;;;;;;-1.62;100.00;97506.75;5037488;28;20056;-58
2024/01/18 10:49:38;;;;;;;1.00;1.00;;;;;;;-1.64;100.00;97519.28;5036815;28;20369;-58
2024/01/18 10:52:07;;;;;;;0.90;0.90;;;;;;;-1.56;100.00;97524.28;5037996;28;20790;-58
2024/01/18 10:54:34;;;;;;;1.00;1.00;;;;;;;-1.62;100.00;97529.56;5036399;28;20042;-58
2024/01/18 10:57:01;;;;;;;0.98;0.98;;;;;;;-1.50;100.00;97537.63;5038207;28;20041;-58
2024/01/18 10:59:29;;;;;;;0.90;0.90;;;;;;;-1.13;100.00;97549.22;5042118;28;20801;-59
2024/01/18 11:01:57;;;;;;;1.00;1.00;;;;;;;-0.74;100.00;97553.50;5036515;28;20041;-59
2024/01/18 11:04:26;;;;;;;1.00;1.00;;;;;;;-0.70;100.00;97554.69;5037709;28;20069;-60
2024/01/18 11:06:57;;;;;;;0.82;0.82;;;;;;;-0.78;100.00;97570.72;5039041;28;20048;-59
2024/01/18 11:09:29;;;;;;;0.88;0.88;;;;;;;-0.37;100.00;97566.84;5039535;28;20998;-59
2024/01/18 11:11:58;;;;;;;1.00;1.00;;;;;;;-0.15;100.00;97569.09;5045818;28;20041;-59
2024/01/18 11:14:26;;;;;;;0.90;0.90;;;;;;;-0.24;100.00;97579.09;4998848;28;20056;-59
2024/01/18 11:16:53;;;;;;;0.75;0.75;;;;;;;-0.60;100.00;97579.72;5040092;28;20075;-59
2024/01/18 11:19:42;;;;;;;0.85;0.85;;;;;;;-1.12;100.00;97592.94;5038431;28;20462;-61
2024/01/18 11:22:11;;;;;;;0.80;0.80;;;;;;;-0.75;100.00;97598.41;5037353;28;20060;-61
2024/01/18 11:24:38;;;;;;;0.90;0.90;;;;;;;-0.76;100.00;97597.63;5033284;28;20313;-59
2024/01/18 11:27:18;;;;;;;0.73;0.73;;;;;;;-0.66;100.00;97600.59;5039376;28;20049;-61